createdAt,value
2018-07-06T04:11:02.286Z,18.77
2018-07-06T04:11:27.798Z,18.66
2018-07-06T04:11:53.291Z,18.73
2018-07-06T04:12:18.803Z,18.7
2018-07-06T04:12:44.257Z,18.75
2018-07-06T04:13:09.732Z,18.74
2018-07-06T04:13:35.194Z,18.66
2018-07-06T04:14:00.683Z,18.74
2018-07-06T04:14:26.165Z,18.71
2018-07-06T04:14:51.650Z,18.74
2018-07-06T04:15:17.143Z,18.7
2018-07-06T04:15:42.646Z,18.7
2018-07-06T04:16:08.223Z,18.7
2018-07-06T04:16:33.627Z,18.77
2018-07-06T04:16:59.135Z,18.75
2018-07-06T04:17:24.672Z,18.8
2018-07-06T04:17:50.178Z,18.77
2018-07-06T04:18:15.653Z,18.7
2018-07-06T04:18:41.143Z,18.78
2018-07-06T04:19:06.581Z,18.66
2018-07-06T04:19:32.071Z,18.77
2018-07-06T04:19:57.545Z,18.71
2018-07-06T04:20:22.977Z,18.74
2018-07-06T04:20:48.488Z,18.74
2018-07-06T04:21:13.921Z,18.71
2018-07-06T04:21:39.410Z,18.74
2018-07-06T04:22:04.853Z,18.8
2018-07-06T04:22:30.315Z,18.68
2018-07-06T04:22:55.816Z,18.74
2018-07-06T04:23:21.298Z,18.75
2018-07-06T04:23:46.746Z,18.66
2018-07-06T04:24:12.266Z,18.7
2018-07-06T04:24:37.730Z,18.73
2018-07-06T04:25:03.201Z,18.71
2018-07-06T04:25:28.683Z,18.77
2018-07-06T04:25:54.225Z,18.65
2018-07-06T04:26:19.646Z,18.77
2018-07-06T04:26:45.140Z,18.77
2018-07-06T04:27:10.634Z,18.77
2018-07-06T04:27:36.124Z,18.77
2018-07-06T04:28:01.681Z,18.73
2018-07-06T04:28:27.171Z,18.73
2018-07-06T04:28:52.676Z,18.7
2018-07-06T04:29:18.106Z,18.7
2018-07-06T04:29:43.596Z,18.84
2018-07-06T04:30:09.075Z,18.71
2018-07-06T04:30:34.614Z,18.81
2018-07-06T04:31:00.074Z,18.86
2018-07-06T04:31:25.577Z,18.88
2018-07-06T04:31:51.061Z,18.74
2018-07-06T04:32:16.510Z,18.84
2018-07-06T04:32:41.978Z,18.88
2018-07-06T04:33:07.535Z,18.86
2018-07-06T04:33:32.943Z,18.83
2018-07-06T04:33:58.437Z,18.84
2018-07-06T04:34:23.855Z,18.84
2018-07-06T04:34:49.305Z,18.83
2018-07-06T04:35:14.779Z,18.88
2018-07-06T04:35:40.258Z,18.89
2018-07-06T04:36:05.759Z,18.86
2018-07-06T04:36:31.263Z,18.83
2018-07-06T04:36:56.799Z,18.89
2018-07-06T04:37:22.268Z,18.84
2018-07-06T04:37:47.775Z,18.86
2018-07-06T04:38:13.245Z,18.83
2018-07-06T04:38:38.718Z,18.83
2018-07-06T04:39:04.216Z,18.88
2018-07-06T04:39:29.723Z,18.84
2018-07-06T04:39:55.240Z,18.81
2018-07-06T04:40:43.563Z,18.74
2018-07-06T04:41:09.037Z,18.86
2018-07-06T04:41:34.545Z,18.84
2018-07-06T04:42:00.086Z,18.86
2018-07-06T04:42:25.567Z,18.81
2018-07-06T04:42:50.990Z,18.83
2018-07-06T04:43:16.525Z,18.83
2018-07-06T04:43:42.017Z,18.81
2018-07-06T04:44:07.580Z,18.7
2018-07-06T04:44:32.968Z,18.74
2018-07-06T04:44:58.464Z,18.77
2018-07-06T04:45:23.947Z,18.73
2018-07-06T04:45:49.413Z,18.78
2018-07-06T04:46:14.902Z,18.74
2018-07-06T04:46:40.354Z,18.78
2018-07-06T04:47:05.843Z,18.78
2018-07-06T04:47:31.343Z,18.7
2018-07-06T04:47:56.859Z,18.71
2018-07-06T04:48:22.379Z,18.75
2018-07-06T04:48:47.893Z,18.74
2018-07-06T04:49:13.593Z,18.74
2018-07-06T04:49:39.079Z,18.73
2018-07-06T04:50:04.584Z,18.71
2018-07-06T04:50:30.019Z,18.78
2018-07-06T04:50:55.514Z,18.7
2018-07-06T04:51:20.985Z,18.74
2018-07-06T04:51:46.478Z,18.73
2018-07-06T04:52:11.984Z,18.74
2018-07-06T04:52:37.508Z,18.65
2018-07-06T04:53:03.020Z,18.78
2018-07-06T04:53:28.513Z,18.71
2018-07-06T04:53:54.110Z,18.77
2018-07-06T04:54:19.488Z,18.74
2018-07-06T04:54:44.969Z,18.66
2018-07-06T04:55:10.454Z,18.8
2018-07-06T04:55:35.881Z,18.75
2018-07-06T04:56:01.421Z,18.75
2018-07-06T04:56:26.858Z,18.78
2018-07-06T04:56:52.337Z,18.77
2018-07-06T04:57:17.764Z,18.73
2018-07-06T04:57:43.286Z,18.7
2018-07-06T04:58:08.740Z,18.77
2018-07-06T04:58:34.241Z,18.8
2018-07-06T04:58:59.695Z,18.74
2018-07-06T04:59:25.184Z,18.77
2018-07-06T04:59:50.692Z,18.78
2018-07-06T05:00:16.131Z,18.7
2018-07-06T05:00:41.561Z,18.77
2018-07-06T05:01:07.044Z,18.74
2018-07-06T05:01:32.567Z,18.73
2018-07-06T05:01:58.008Z,18.71
2018-07-06T05:02:23.468Z,18.74
2018-07-06T05:02:49.012Z,18.77
2018-07-06T05:03:14.468Z,18.74
2018-07-06T05:03:40.012Z,18.75
2018-07-06T05:04:05.459Z,18.7
2018-07-06T05:04:30.933Z,18.74
2018-07-06T05:04:56.367Z,18.68
2018-07-06T05:05:21.843Z,18.77
2018-07-06T05:05:47.304Z,18.7
2018-07-06T05:06:12.838Z,18.71
2018-07-06T05:06:38.309Z,18.74
2018-07-06T05:07:03.750Z,18.74
2018-07-06T05:07:29.290Z,18.81
2018-07-06T05:07:54.817Z,18.8
2018-07-06T05:08:20.182Z,18.88
2018-07-06T05:08:45.729Z,18.86
2018-07-06T05:09:11.187Z,18.84
2018-07-06T05:09:36.675Z,18.84
2018-07-06T05:10:02.117Z,18.78
2018-07-06T05:10:27.618Z,18.88
2018-07-06T05:10:53.071Z,18.86
2018-07-06T05:11:18.591Z,18.83
2018-07-06T05:11:44.000Z,18.83
2018-07-06T05:12:09.466Z,18.84
2018-07-06T05:12:34.964Z,18.78
2018-07-06T05:13:00.434Z,18.86
2018-07-06T05:13:25.944Z,18.86
2018-07-06T05:13:51.432Z,18.84
2018-07-06T05:14:16.981Z,18.81
2018-07-06T05:14:42.448Z,18.89
2018-07-06T05:15:07.888Z,18.81
2018-07-06T05:15:33.311Z,18.83
2018-07-06T05:15:58.816Z,18.78
2018-07-06T05:16:24.253Z,18.81
2018-07-06T05:16:49.758Z,18.75
2018-07-06T05:17:15.265Z,18.7
2018-07-06T05:17:40.725Z,18.83
2018-07-06T05:18:06.193Z,18.73
2018-07-06T05:18:31.629Z,18.73
2018-07-06T05:18:57.114Z,18.83
2018-07-06T05:19:22.588Z,18.84
2018-07-06T05:19:48.117Z,18.83
2018-07-06T05:20:13.581Z,18.84
2018-07-06T05:20:39.062Z,18.81
2018-07-06T05:21:04.535Z,18.89
2018-07-06T05:21:29.984Z,18.88
2018-07-06T05:21:55.503Z,18.81
2018-07-06T05:22:21.017Z,18.84
2018-07-06T05:22:46.508Z,18.83
2018-07-06T05:23:11.893Z,18.88
2018-07-06T05:23:37.394Z,18.84
2018-07-06T05:24:02.824Z,18.88
2018-07-06T05:24:28.330Z,18.86
2018-07-06T05:24:53.823Z,18.84
2018-07-06T05:25:19.332Z,18.81
2018-07-06T05:25:44.782Z,18.7
2018-07-06T05:26:10.294Z,18.84
2018-07-06T05:26:35.787Z,18.88
2018-07-06T05:27:01.222Z,18.71
2018-07-06T05:27:26.706Z,18.66
2018-07-06T05:27:52.164Z,18.75
2018-07-06T05:28:17.651Z,18.71
2018-07-06T05:28:43.082Z,18.77
2018-07-06T05:29:08.598Z,18.74
2018-07-06T05:29:34.078Z,18.74
2018-07-06T05:29:59.580Z,18.75
2018-07-06T05:30:24.990Z,18.7
2018-07-06T05:30:50.459Z,18.73
2018-07-06T05:31:15.965Z,18.7
2018-07-06T05:31:41.429Z,18.8
2018-07-06T05:32:06.911Z,18.74
2018-07-06T05:32:32.386Z,18.73
2018-07-06T05:32:57.839Z,18.75
2018-07-06T05:33:23.337Z,18.83
2018-07-06T05:33:48.794Z,18.78
2018-07-06T05:34:14.251Z,18.73
2018-07-06T05:34:39.700Z,18.75
2018-07-06T05:35:05.214Z,18.65
2018-07-06T05:35:30.672Z,18.71
2018-07-06T05:35:56.118Z,18.71
2018-07-06T05:36:21.604Z,18.83
2018-07-06T05:36:47.079Z,18.77
2018-07-06T05:37:12.516Z,18.84
2018-07-06T05:37:38.045Z,18.71
2018-07-06T05:38:03.509Z,18.9
2018-07-06T05:38:29.009Z,18.83
2018-07-06T05:38:54.492Z,18.75
2018-07-06T05:39:20.035Z,18.86
2018-07-06T05:39:45.540Z,18.8
2018-07-06T05:40:10.982Z,18.84
2018-07-06T05:40:36.411Z,18.86
2018-07-06T05:41:01.907Z,18.83
2018-07-06T05:41:27.389Z,18.84
2018-07-06T05:41:52.792Z,18.81
2018-07-06T05:42:18.328Z,18.84
2018-07-06T05:42:43.760Z,18.89
2018-07-06T05:43:09.282Z,18.86
2018-07-06T05:43:34.716Z,18.96
2018-07-06T05:44:00.263Z,18.89
2018-07-06T05:44:25.754Z,18.95
2018-07-06T05:44:51.233Z,18.89
2018-07-06T05:45:16.667Z,18.93
2018-07-06T05:45:42.153Z,18.83
2018-07-06T05:46:07.646Z,18.88
2018-07-06T05:46:33.131Z,18.86
2018-07-06T05:46:58.638Z,18.86
2018-07-06T05:47:24.174Z,18.83
2018-07-06T05:47:49.678Z,18.83
2018-07-06T05:48:15.150Z,18.88
2018-07-06T05:48:40.667Z,18.88
2018-07-06T05:49:06.130Z,18.81
2018-07-06T05:49:31.671Z,18.81
2018-07-06T05:49:57.147Z,18.83
2018-07-06T05:50:22.638Z,18.84
2018-07-06T05:50:48.134Z,18.88
2018-07-06T05:51:13.612Z,18.83
2018-07-06T05:51:39.185Z,18.84
2018-07-06T05:52:04.603Z,18.88
2018-07-06T05:52:30.086Z,18.86
2018-07-06T05:52:55.572Z,18.95
2018-07-06T05:53:21.066Z,18.89
2018-07-06T05:53:46.606Z,18.88
2018-07-06T05:54:12.057Z,18.81
2018-07-06T05:55:10.592Z,18.84
2018-07-06T05:55:36.101Z,18.88
2018-07-06T05:56:01.629Z,18.8
2018-07-06T05:56:27.128Z,18.8
2018-07-06T05:56:52.625Z,18.88
2018-07-06T05:57:18.108Z,18.83
2018-07-06T05:57:43.613Z,18.92
2018-07-06T05:58:09.102Z,18.9
2018-07-06T05:58:35.029Z,18.84
2018-07-06T05:59:00.581Z,18.84
2018-07-06T05:59:26.242Z,18.84
2018-07-06T05:59:51.734Z,18.86
2018-07-06T06:00:17.235Z,18.8
2018-07-06T06:00:42.703Z,18.83
2018-07-06T06:01:08.208Z,18.86
2018-07-06T06:01:33.727Z,18.83
2018-07-06T06:01:59.209Z,18.88
2018-07-06T06:02:24.732Z,18.81
2018-07-06T06:02:50.259Z,18.83
2018-07-06T06:03:15.710Z,18.81
2018-07-06T06:03:41.192Z,18.83
2018-07-06T06:04:44.950Z,18.86
2018-07-06T06:05:10.314Z,18.83
2018-07-06T06:05:35.817Z,18.98
2018-07-06T06:06:01.315Z,18.93
2018-07-06T06:06:26.789Z,19.02
2018-07-06T06:06:52.295Z,18.95
2018-07-06T06:07:17.790Z,19.02
2018-07-06T06:07:43.260Z,18.89
2018-07-06T06:08:08.741Z,18.9
2018-07-06T06:08:34.242Z,18.93
2018-07-06T06:08:59.805Z,18.99
2018-07-06T06:10:03.391Z,18.99
2018-07-06T06:10:28.882Z,19.08
2018-07-06T06:10:54.352Z,19.02
2018-07-06T06:11:19.854Z,19.02
2018-07-06T06:11:45.337Z,19.02
2018-07-06T06:12:10.862Z,19.14
2018-07-06T06:12:36.347Z,19.15
2018-07-06T06:13:01.866Z,19.12
2018-07-06T06:13:27.389Z,19.09
2018-07-06T06:13:52.881Z,19.16
2018-07-06T06:14:18.381Z,19.19
2018-07-06T06:14:43.892Z,19.21
2018-07-06T06:15:09.379Z,19.15
2018-07-06T06:15:34.901Z,19.21
2018-07-06T06:16:00.368Z,19.27
2018-07-06T06:16:25.867Z,19.29
2018-07-06T06:16:51.322Z,19.33
2018-07-06T06:17:16.832Z,19.33
2018-07-06T06:17:42.370Z,19.34
2018-07-06T06:18:07.849Z,19.3
2018-07-06T06:18:33.372Z,19.31
2018-07-06T06:18:58.819Z,19.39
2018-07-06T06:19:24.347Z,19.37
2018-07-06T06:19:49.834Z,19.37
2018-07-06T06:20:15.340Z,19.34
2018-07-06T06:20:40.873Z,19.47
2018-07-06T06:21:06.366Z,19.34
2018-07-06T06:21:31.863Z,19.36
2018-07-06T06:22:40.559Z,19.45
2018-07-06T06:23:06.043Z,19.31
2018-07-06T06:23:31.539Z,19.37
2018-07-06T06:23:57.056Z,19.34
2018-07-06T06:24:22.541Z,19.34
2018-07-06T06:24:48.460Z,19.4
2018-07-06T06:25:13.779Z,19.39
2018-07-06T06:25:39.276Z,19.44
2018-07-06T06:26:04.755Z,19.49
2018-07-06T06:26:30.227Z,19.44
2018-07-06T06:26:55.734Z,19.56
2018-07-06T06:27:21.503Z,19.52
2018-07-06T06:27:46.958Z,19.51
2018-07-06T06:28:12.426Z,19.58
2018-07-06T06:28:37.864Z,19.51
2018-07-06T06:29:03.355Z,19.51
2018-07-06T06:29:28.856Z,19.58
2018-07-06T06:29:54.303Z,19.58
2018-07-06T06:30:19.800Z,19.56
2018-07-06T06:30:45.251Z,19.58
2018-07-06T06:31:10.699Z,19.58
2018-07-06T06:31:36.172Z,19.56
2018-07-06T06:32:01.703Z,19.55
2018-07-06T06:32:27.104Z,19.69
2018-07-06T06:32:52.681Z,19.58
2018-07-06T06:33:18.173Z,19.63
2018-07-06T06:33:43.625Z,19.54
2018-07-06T06:34:09.049Z,19.64
2018-07-06T06:34:34.524Z,19.66
2018-07-06T06:35:00.016Z,19.64
2018-07-06T06:35:25.490Z,19.66
2018-07-06T06:35:50.933Z,19.58
2018-07-06T06:36:16.404Z,19.64
2018-07-06T06:36:41.841Z,19.63
2018-07-06T06:37:07.328Z,19.63
2018-07-06T06:37:32.852Z,19.7
2018-07-06T06:37:58.327Z,19.74
2018-07-06T06:38:23.800Z,19.66
2018-07-06T06:38:49.264Z,19.7
2018-07-06T06:39:14.770Z,19.74
2018-07-06T06:39:40.188Z,19.74
2018-07-06T06:40:05.695Z,19.84
2018-07-06T06:40:31.178Z,19.86
2018-07-06T06:40:56.671Z,19.79
2018-07-06T06:41:22.109Z,19.77
2018-07-06T06:41:47.572Z,19.88
2018-07-06T06:42:13.091Z,19.85
2018-07-06T06:42:38.518Z,19.85
2018-07-06T06:43:03.977Z,19.82
2018-07-06T06:43:52.295Z,19.89
2018-07-06T06:44:17.830Z,19.86
2018-07-06T06:44:43.319Z,19.82
2018-07-06T06:45:08.747Z,19.92
2018-07-06T06:45:34.222Z,19.91
2018-07-06T06:45:59.697Z,19.94
2018-07-06T06:46:25.189Z,19.94
2018-07-06T06:46:50.771Z,19.88
2018-07-06T06:47:16.253Z,20.02
2018-07-06T06:47:41.689Z,19.96
2018-07-06T06:48:07.175Z,19.95
2018-07-06T06:48:32.639Z,20.02
2018-07-06T06:48:58.125Z,20.06
2018-07-06T06:49:23.572Z,20.03
2018-07-06T06:49:49.052Z,20.06
2018-07-06T06:50:14.539Z,20.16
2018-07-06T06:50:40.094Z,20.11
2018-07-06T06:51:05.470Z,20.14
2018-07-06T06:51:30.930Z,20.18
2018-07-06T06:51:56.382Z,20.18
2018-07-06T06:52:21.865Z,20.14
2018-07-06T06:52:47.327Z,20.19
2018-07-06T06:53:12.813Z,20.24
2018-07-06T06:53:38.272Z,20.21
2018-07-06T06:54:03.748Z,20.22
2018-07-06T06:54:29.219Z,20.25
2018-07-06T06:54:54.676Z,20.25
2018-07-06T06:55:20.153Z,20.21
2018-07-06T06:55:45.666Z,20.25
2018-07-06T06:56:11.084Z,20.25
2018-07-06T06:56:36.522Z,20.25
2018-07-06T06:57:01.983Z,20.31
2018-07-06T06:57:27.447Z,20.32
2018-07-06T06:57:52.927Z,20.28
2018-07-06T06:58:18.406Z,20.24
2018-07-06T06:58:43.892Z,20.28
2018-07-06T06:59:09.382Z,20.28
2018-07-06T06:59:34.808Z,20.29
2018-07-06T07:00:00.250Z,20.31
2018-07-06T07:00:27.662Z,20.32
2018-07-06T07:00:51.211Z,20.28
2018-07-06T07:01:16.722Z,20.29
2018-07-06T07:01:42.169Z,20.29
2018-07-06T07:02:07.639Z,20.29
2018-07-06T07:02:33.182Z,20.29
2018-07-06T07:02:58.677Z,20.28
2018-07-06T07:03:24.142Z,20.37
2018-07-06T07:03:49.593Z,20.26
2018-07-06T07:04:15.085Z,20.28
2018-07-06T07:04:40.609Z,20.29
2018-07-06T07:05:06.115Z,20.29
2018-07-06T07:05:31.626Z,20.32
2018-07-06T07:05:57.109Z,20.29
2018-07-06T07:06:22.568Z,20.44
2018-07-06T07:06:48.057Z,20.4
2018-07-06T07:07:13.619Z,20.39
2018-07-06T07:07:39.222Z,20.41
2018-07-06T07:08:04.566Z,20.37
2018-07-06T07:08:30.091Z,20.39
2018-07-06T07:08:55.623Z,20.44
2018-07-06T07:09:21.304Z,20.43
2018-07-06T07:09:47.162Z,20.48
2018-07-06T07:10:12.707Z,20.41
2018-07-06T07:10:38.224Z,20.36
2018-07-06T07:11:03.757Z,20.41
2018-07-06T07:11:29.441Z,20.55
2018-07-06T07:11:54.968Z,20.48
2018-07-06T07:12:20.466Z,20.52
2018-07-06T07:12:45.952Z,20.52
2018-07-06T07:13:11.469Z,20.55
2018-07-06T07:13:37.368Z,20.5
2018-07-06T07:14:02.993Z,20.58
2018-07-06T07:14:28.366Z,20.55
2018-07-06T07:14:53.825Z,20.55
2018-07-06T07:15:19.304Z,20.55
2018-07-06T07:15:44.764Z,20.55
2018-07-06T07:16:10.232Z,20.48
2018-07-06T07:16:36.082Z,20.51
2018-07-06T07:17:01.632Z,20.56
2018-07-06T07:17:27.125Z,20.55
2018-07-06T07:17:52.625Z,20.52
2018-07-06T07:18:18.137Z,20.5
2018-07-06T07:18:43.632Z,20.48
2018-07-06T07:19:09.094Z,20.5
2018-07-06T07:19:34.686Z,20.47
2018-07-06T07:20:00.137Z,20.55
2018-07-06T07:20:25.649Z,20.44
2018-07-06T07:20:51.112Z,20.37
2018-07-06T07:21:16.610Z,20.39
2018-07-06T07:21:42.155Z,20.43
2018-07-06T07:22:07.658Z,20.41
2018-07-06T07:22:33.167Z,20.41
2018-07-06T07:22:58.650Z,20.39
2018-07-06T07:23:24.120Z,20.36
2018-07-06T07:23:49.588Z,20.37
2018-07-06T07:24:15.070Z,20.39
2018-07-06T07:24:40.591Z,20.41
2018-07-06T07:25:06.074Z,20.29
2018-07-06T07:25:31.557Z,20.32
2018-07-06T07:25:57.081Z,20.26
2018-07-06T07:26:22.561Z,20.26
2018-07-06T07:26:48.058Z,20.36
2018-07-06T07:27:13.518Z,20.28
2018-07-06T07:27:38.997Z,20.29
2018-07-06T07:28:04.454Z,20.31
2018-07-06T07:28:29.939Z,20.31
2018-07-06T07:28:55.379Z,20.28
2018-07-06T07:29:20.882Z,20.37
2018-07-06T07:29:46.344Z,20.37
2018-07-06T07:30:12.020Z,20.37
2018-07-06T07:30:37.490Z,20.43
2018-07-06T07:31:02.935Z,20.4
2018-07-06T07:31:28.433Z,20.43
2018-07-06T07:31:53.941Z,20.43
2018-07-06T07:32:19.453Z,20.39
2018-07-06T07:32:44.977Z,20.52
2018-07-06T07:33:10.582Z,20.52
2018-07-06T07:33:36.043Z,20.55
2018-07-06T07:34:01.619Z,20.51
2018-07-06T07:34:27.123Z,20.52
2018-07-06T07:34:52.681Z,20.55
2018-07-06T07:35:18.171Z,20.5
2018-07-06T07:35:43.689Z,20.58
2018-07-06T07:36:09.200Z,20.58
2018-07-06T07:36:34.719Z,20.48
2018-07-06T07:37:00.202Z,20.56
2018-07-06T07:37:25.708Z,20.55
2018-07-06T07:37:51.247Z,20.63
2018-07-06T07:38:16.756Z,20.56
2018-07-06T07:38:42.229Z,20.6
2018-07-06T07:39:07.871Z,20.6
2018-07-06T07:39:33.454Z,20.55
2018-07-06T07:39:58.976Z,20.66
2018-07-06T07:40:24.452Z,20.69
2018-07-06T07:40:49.962Z,20.58
2018-07-06T07:41:15.414Z,20.59
2018-07-06T07:41:41.026Z,20.6
2018-07-06T07:42:06.476Z,20.63
2018-07-06T07:42:31.942Z,20.66
2018-07-06T07:42:57.431Z,20.65
2018-07-06T07:43:22.903Z,20.69
2018-07-06T07:43:48.372Z,20.6
2018-07-06T07:44:13.871Z,20.7
2018-07-06T07:44:39.304Z,20.65
2018-07-06T07:45:04.836Z,20.7
2018-07-06T07:45:30.319Z,20.8
2018-07-06T07:45:55.812Z,20.77
2018-07-06T07:46:21.278Z,20.7
2018-07-06T07:46:46.787Z,20.67
2018-07-06T07:47:12.266Z,20.82
2018-07-06T07:47:37.818Z,20.81
2018-07-06T07:48:03.478Z,20.82
2018-07-06T07:48:28.916Z,20.9
2018-07-06T07:48:54.402Z,21
2018-07-06T07:49:19.923Z,20.99
2018-07-06T07:49:45.383Z,21.02
2018-07-06T07:50:10.956Z,20.99
2018-07-06T07:50:36.445Z,20.97
2018-07-06T07:51:01.941Z,21
2018-07-06T07:51:27.415Z,20.97
2018-07-06T07:51:52.871Z,21.03
2018-07-06T07:52:18.342Z,20.97
2018-07-06T07:52:43.846Z,20.92
2018-07-06T07:53:09.258Z,20.9
2018-07-06T07:53:34.737Z,21.03
2018-07-06T07:54:00.371Z,20.95
2018-07-06T07:54:25.891Z,20.8
2018-07-06T07:54:51.375Z,20.92
2018-07-06T07:55:16.826Z,20.99
2018-07-06T07:55:42.299Z,20.93
2018-07-06T07:56:07.747Z,20.88
2018-07-06T07:56:33.213Z,21.02
2018-07-06T07:56:58.702Z,20.99
2018-07-06T07:57:24.178Z,20.97
2018-07-06T07:57:49.649Z,20.99
2018-07-06T07:58:15.129Z,20.95
2018-07-06T07:58:40.601Z,21.03
2018-07-06T07:59:06.074Z,20.95
2018-07-06T07:59:31.523Z,20.95
2018-07-06T07:59:57.010Z,21
2018-07-06T08:00:22.580Z,21.14
2018-07-06T08:00:48.154Z,21.12
2018-07-06T08:01:13.512Z,21.09
2018-07-06T08:01:38.933Z,21.15
2018-07-06T08:02:04.367Z,21.17
2018-07-06T08:02:29.795Z,21.2
2018-07-06T08:02:55.281Z,21.25
2018-07-06T08:03:20.758Z,21.3
2018-07-06T08:03:46.346Z,21.25
2018-07-06T08:04:11.749Z,21.3
2018-07-06T08:04:37.211Z,21.37
2018-07-06T08:05:02.663Z,21.35
2018-07-06T08:05:28.160Z,21.37
2018-07-06T08:05:53.602Z,21.32
2018-07-06T08:06:19.076Z,21.45
2018-07-06T08:06:44.555Z,21.42
2018-07-06T08:07:10.017Z,21.43
2018-07-06T08:07:35.502Z,21.4
2018-07-06T08:08:01.131Z,21.37
2018-07-06T08:08:26.506Z,21.39
2018-07-06T08:08:51.982Z,21.43
2018-07-06T08:09:17.596Z,21.45
2018-07-06T08:09:42.980Z,21.48
2018-07-06T08:10:36.411Z,21.45
2018-07-06T08:11:01.948Z,21.4
2018-07-06T08:11:27.408Z,21.45
2018-07-06T08:11:53.001Z,21.46
2018-07-06T08:12:18.336Z,21.43
2018-07-06T08:12:43.806Z,21.43
2018-07-06T08:13:09.281Z,21.48
2018-07-06T08:13:34.762Z,21.43
2018-07-06T08:14:04.910Z,21.46
2018-07-06T08:14:25.921Z,21.43
2018-07-06T08:14:51.304Z,21.52
2018-07-06T08:15:16.815Z,21.54
2018-07-06T08:15:42.357Z,21.51
2018-07-06T08:16:07.830Z,21.61
2018-07-06T08:16:33.338Z,21.7
2018-07-06T08:16:58.817Z,21.82
2018-07-06T08:17:24.301Z,21.8
2018-07-06T08:17:49.831Z,21.98
2018-07-06T08:18:15.352Z,22.14
2018-07-06T08:18:40.814Z,22.22
2018-07-06T08:19:06.326Z,22.38
2018-07-06T08:19:31.865Z,22.39
2018-07-06T08:20:40.589Z,22.68
2018-07-06T08:21:06.114Z,22.69
2018-07-06T08:21:31.607Z,22.73
2018-07-06T08:21:57.086Z,22.84
2018-07-06T08:22:22.587Z,22.83
2018-07-06T08:22:48.146Z,22.91
2018-07-06T08:23:14.737Z,22.96
2018-07-06T08:23:39.924Z,23.08
2018-07-06T08:24:05.415Z,23.15
2018-07-06T08:24:30.897Z,23.2
2018-07-06T08:24:56.403Z,23.27
2018-07-06T08:25:21.915Z,23.18
2018-07-06T08:25:47.389Z,23.24
2018-07-06T08:26:12.869Z,23.25
2018-07-06T08:26:38.389Z,23.27
2018-07-06T08:27:03.871Z,23.23
2018-07-06T08:27:29.390Z,23.34
2018-07-06T08:27:54.881Z,23.39
2018-07-06T08:28:20.350Z,23.37
2018-07-06T08:28:45.845Z,23.44
2018-07-06T08:29:11.313Z,23.47
2018-07-06T08:29:36.790Z,23.44
2018-07-06T08:30:02.275Z,23.44
2018-07-06T08:30:27.766Z,23.43
2018-07-06T08:30:53.350Z,23.43
2018-07-06T08:31:18.761Z,23.55
2018-07-06T08:31:44.267Z,23.43
2018-07-06T08:32:09.751Z,23.4
2018-07-06T08:32:35.265Z,23.44
2018-07-06T08:33:00.798Z,23.32
2018-07-06T08:33:26.295Z,23.43
2018-07-06T08:33:51.785Z,23.34
2018-07-06T08:34:17.284Z,23.28
2018-07-06T08:34:42.774Z,23.23
2018-07-06T08:35:08.275Z,23.24
2018-07-06T08:35:33.761Z,23.24
2018-07-06T08:35:59.292Z,23.21
2018-07-06T08:36:24.821Z,23.17
2018-07-06T08:36:50.253Z,23.13
2018-07-06T08:37:15.749Z,23.23
2018-07-06T08:37:41.277Z,23.21
2018-07-06T08:38:06.785Z,23.2
2018-07-06T08:38:32.269Z,23.17
2018-07-06T08:38:57.771Z,23.24
2018-07-06T08:39:23.270Z,23.25
2018-07-06T08:39:48.929Z,23.27
2018-07-06T08:40:14.311Z,23.23
2018-07-06T08:40:39.782Z,23.28
2018-07-06T08:41:05.264Z,23.25
2018-07-06T08:41:30.744Z,23.37
2018-07-06T08:41:56.253Z,23.37
2018-07-06T08:42:21.796Z,23.41
2018-07-06T08:42:47.278Z,23.5
2018-07-06T08:43:12.790Z,23.62
2018-07-06T08:43:38.294Z,23.65
2018-07-06T08:44:03.785Z,23.73
2018-07-06T08:44:29.288Z,23.87
2018-07-06T08:44:54.828Z,23.86
2018-07-06T08:45:20.302Z,23.88
2018-07-06T08:45:45.803Z,23.96
2018-07-06T08:46:11.405Z,24.05
2018-07-06T08:46:36.940Z,24.1
2018-07-06T08:47:02.364Z,24.24
2018-07-06T08:47:27.844Z,24.26
2018-07-06T08:47:53.328Z,24.3
2018-07-06T08:48:18.766Z,24.38
2018-07-06T08:48:44.235Z,24.43
2018-07-06T08:49:09.729Z,24.42
2018-07-06T08:49:35.210Z,24.38
2018-07-06T08:50:00.801Z,24.51
2018-07-06T08:50:26.252Z,24.51
2018-07-06T08:50:51.691Z,24.51
2018-07-06T08:51:17.211Z,24.61
2018-07-06T08:51:42.654Z,24.61
2018-07-06T08:52:08.123Z,24.73
2018-07-06T08:52:33.599Z,24.68
2018-07-06T08:52:59.144Z,24.68
2018-07-06T08:53:24.562Z,24.76
2018-07-06T08:53:50.421Z,24.77
2018-07-06T08:54:15.975Z,24.73
2018-07-06T08:54:41.473Z,24.76
2018-07-06T08:55:06.977Z,24.8
2018-07-06T08:55:32.481Z,24.68
2018-07-06T08:55:57.986Z,24.66
2018-07-06T08:56:23.489Z,24.66
2018-07-06T08:56:48.987Z,24.58
2018-07-06T08:57:14.459Z,24.55
2018-07-06T08:57:39.950Z,24.5
2018-07-06T08:58:05.456Z,24.43
2018-07-06T08:58:31.078Z,24.45
2018-07-06T08:58:56.582Z,24.36
2018-07-06T08:59:22.064Z,24.39
2018-07-06T08:59:47.573Z,24.38
2018-07-06T09:00:13.063Z,24.36
2018-07-06T09:00:38.540Z,24.28
2018-07-06T09:01:04.080Z,24.29
2018-07-06T09:01:29.566Z,24.29
2018-07-06T09:01:55.080Z,24.28
2018-07-06T09:02:20.555Z,24.3
2018-07-06T09:02:46.055Z,24.32
2018-07-06T09:03:11.546Z,24.36
2018-07-06T09:03:37.047Z,24.26
2018-07-06T09:04:02.647Z,24.42
2018-07-06T09:04:28.224Z,24.39
2018-07-06T09:04:53.546Z,24.39
2018-07-06T09:05:19.052Z,24.48
2018-07-06T09:05:44.545Z,24.54
2018-07-06T09:06:10.066Z,24.65
2018-07-06T09:06:35.571Z,24.66
2018-07-06T09:07:01.072Z,24.76
2018-07-06T09:07:26.571Z,24.8
2018-07-06T09:07:52.027Z,24.78
2018-07-06T09:08:17.560Z,24.86
2018-07-06T09:08:43.060Z,24.95
2018-07-06T09:09:08.538Z,25.03
2018-07-06T09:09:34.033Z,25.04
2018-07-06T09:09:59.520Z,25.1
2018-07-06T09:10:25.089Z,25.04
2018-07-06T09:10:50.642Z,25.01
2018-07-06T09:11:16.120Z,25.03
2018-07-06T09:11:41.622Z,25.03
2018-07-06T09:12:07.097Z,24.95
2018-07-06T09:12:32.609Z,24.91
2018-07-06T09:12:58.093Z,24.95
2018-07-06T09:13:23.597Z,24.98
2018-07-06T09:13:49.201Z,24.96
2018-07-06T09:14:14.683Z,24.85
2018-07-06T09:14:40.193Z,24.88
2018-07-06T09:15:05.651Z,24.89
2018-07-06T09:15:31.134Z,24.81
2018-07-06T09:15:56.599Z,24.89
2018-07-06T09:16:22.131Z,24.92
2018-07-06T09:16:47.529Z,24.93
2018-07-06T09:17:13.011Z,24.96
2018-07-06T09:17:38.452Z,25.04
2018-07-06T09:18:03.976Z,24.98
2018-07-06T09:18:29.457Z,25.06
2018-07-06T09:18:54.921Z,25.07
2018-07-06T09:19:20.393Z,25.07
2018-07-06T09:19:46.182Z,25.17
2018-07-06T09:20:11.371Z,25.16
2018-07-06T09:20:36.764Z,25.25
2018-07-06T09:21:02.231Z,25.31
2018-07-06T09:21:27.700Z,25.33
2018-07-06T09:22:25.760Z,25.46
2018-07-06T09:22:51.247Z,25.53
2018-07-06T09:23:16.766Z,25.55
2018-07-06T09:23:42.259Z,25.62
2018-07-06T09:24:07.761Z,25.68
2018-07-06T09:24:33.217Z,25.75
2018-07-06T09:24:58.702Z,25.72
2018-07-06T09:25:24.183Z,25.8
2018-07-06T09:25:49.779Z,25.78
2018-07-06T09:26:15.206Z,25.85
2018-07-06T09:26:40.551Z,25.88
2018-07-06T09:27:06.017Z,25.95
2018-07-06T09:27:31.551Z,25.95
2018-07-06T09:27:57.064Z,25.91
2018-07-06T09:28:22.511Z,25.96
2018-07-06T09:28:47.996Z,25.96
2018-07-06T09:29:13.442Z,26.02
2018-07-06T09:29:38.934Z,26.06
2018-07-06T09:30:04.393Z,26.07
2018-07-06T09:30:29.890Z,26.09
2018-07-06T09:30:55.345Z,26.18
2018-07-06T09:31:20.826Z,26.22
2018-07-06T09:31:46.297Z,26.26
2018-07-06T09:32:11.736Z,26.28
2018-07-06T09:32:37.253Z,26.28
2018-07-06T09:33:02.743Z,26.33
2018-07-06T09:33:28.161Z,26.33
2018-07-06T09:33:53.620Z,26.34
2018-07-06T09:34:19.097Z,26.36
2018-07-06T09:34:44.581Z,26.43
2018-07-06T09:35:10.039Z,26.47
2018-07-06T09:35:35.482Z,26.53
2018-07-06T09:36:00.967Z,26.48
2018-07-06T09:36:26.426Z,26.34
2018-07-06T09:36:51.913Z,26.36
2018-07-06T09:37:17.380Z,26.4
2018-07-06T09:37:42.832Z,26.36
2018-07-06T09:38:08.294Z,26.31
2018-07-06T09:38:33.791Z,26.19
2018-07-06T09:38:59.263Z,26.13
2018-07-06T09:39:24.926Z,26.07
2018-07-06T09:39:50.277Z,26.05
2018-07-06T09:40:15.785Z,26
2018-07-06T09:40:41.272Z,25.96
2018-07-06T09:41:06.779Z,25.93
2018-07-06T09:41:32.296Z,25.84
2018-07-06T09:41:57.780Z,25.78
2018-07-06T09:42:23.481Z,25.78
2018-07-06T09:42:48.770Z,25.8
2018-07-06T09:43:14.268Z,25.84
2018-07-06T09:43:39.798Z,25.8
2018-07-06T09:44:05.379Z,25.83
2018-07-06T09:44:30.765Z,25.81
2018-07-06T09:44:56.252Z,25.85
2018-07-06T09:45:21.758Z,25.9